sensor_id;sensor_type;location;lat;lon;timestamp;pressure;altitude;pressure_sealevel;temperature;humidity
70758;BME280;59316;52.964;7.102;2023-05-10T00:05:15;100686.47;;;15.90;nan
70758;BME280;59316;52.964;7.102;2023-05-10T00:10:37;100677.66;;;15.80;nan
70758;BME280;59316;52.964;7.102;2023-05-10T00:15:58;100684.50;;;15.83;nan
70758;BME280;59316;52.964;7.102;2023-05-10T00:21:21;100673.06;;;15.72;nan
70758;BME280;59316;52.964;7.102;2023-05-10T00:26:42;100671.81;;;15.76;nan
70758;BME280;59316;52.964;7.102;2023-05-10T00:32:04;100670.22;;;15.85;nan
70758;BME280;59316;52.964;7.102;2023-05-10T00:37:26;100664.41;;;15.91;nan
70758;BME280;59316;52.964;7.102;2023-05-10T00:42:48;100674.22;;;16.11;nan
70758;BME280;59316;52.964;7.102;2023-05-10T00:48:09;100667.63;;;15.74;nan
70758;BME280;59316;52.964;7.102;2023-05-10T00:53:31;100675.16;;;15.57;nan
70758;BME280;59316;52.964;7.102;2023-05-10T00:58:53;100677.84;;;15.46;nan
70758;BME280;59316;52.964;7.102;2023-05-10T01:04:15;100675.38;;;15.33;nan
70758;BME280;59316;52.964;7.102;2023-05-10T01:09:36;100664.97;;;15.32;nan
70758;BME280;59316;52.964;7.102;2023-05-10T01:14:58;100664.75;;;15.23;nan
70758;BME280;59316;52.964;7.102;2023-05-10T01:20:21;100668.13;;;15.14;nan
70758;BME280;59316;52.964;7.102;2023-05-10T01:37:31;100674.66;;;14.99;nan
70758;BME280;59316;52.964;7.102;2023-05-10T01:43:25;100670.81;;;15.03;nan
70758;BME280;59316;52.964;7.102;2023-05-10T01:48:52;100679.09;;;14.98;nan
70758;BME280;59316;52.964;7.102;2023-05-10T01:54:17;100680.75;;;14.99;nan
70758;BME280;59316;52.964;7.102;2023-05-10T01:59:43;100678.25;;;14.98;nan
70758;BME280;59316;52.964;7.102;2023-05-10T02:05:07;100674.66;;;14.99;nan
70758;BME280;59316;52.964;7.102;2023-05-10T02:10:29;100668.41;;;15.11;nan
70758;BME280;59316;52.964;7.102;2023-05-10T02:15:53;100676.84;;;14.82;nan
70758;BME280;59316;52.964;7.102;2023-05-10T02:21:15;100679.47;;;14.82;nan
70758;BME280;59316;52.964;7.102;2023-05-10T02:26:38;100682.56;;;14.87;nan
70758;BME280;59316;52.964;7.102;2023-05-10T02:32:02;100679.88;;;14.77;nan
70758;BME280;59316;52.964;7.102;2023-05-10T02:37:25;100683.94;;;14.70;nan
70758;BME280;59316;52.964;7.102;2023-05-10T02:42:47;100685.22;;;14.76;nan
70758;BME280;59316;52.964;7.102;2023-05-10T02:48:11;100679.34;;;14.84;nan
70758;BME280;59316;52.964;7.102;2023-05-10T02:53:38;100668.94;;;14.82;nan
70758;BME280;59316;52.964;7.102;2023-05-10T02:59:02;100671.59;;;14.82;nan
70758;BME280;59316;52.964;7.102;2023-05-10T03:04:23;100679.88;;;14.77;nan
70758;BME280;59316;52.964;7.102;2023-05-10T03:09:48;100673.25;;;14.83;nan
70758;BME280;59316;52.964;7.102;2023-05-10T03:15:22;100681.91;;;14.74;nan
70758;BME280;59316;52.964;7.102;2023-05-10T03:21:02;100674.63;;;14.66;nan
70758;BME280;59316;52.964;7.102;2023-05-10T03:26:27;100680.59;;;14.68;nan
70758;BME280;59316;52.964;7.102;2023-05-10T03:32:03;100683.09;;;14.70;nan
70758;BME280;59316;52.964;7.102;2023-05-10T03:37:25;100690.63;;;14.63;nan
70758;BME280;59316;52.964;7.102;2023-05-10T03:42:46;100688.72;;;14.65;nan
70758;BME280;59316;52.964;7.102;2023-05-10T03:48:08;100692.78;;;14.58;nan
70758;BME280;59316;52.964;7.102;2023-05-10T03:53:30;100698.31;;;14.66;nan
70758;BME280;59316;52.964;7.102;2023-05-10T03:58:52;100695.06;;;14.62;nan
70758;BME280;59316;52.964;7.102;2023-05-10T04:04:13;100687.41;;;14.59;nan
70758;BME280;59316;52.964;7.102;2023-05-10T04:09:35;100705.00;;;14.59;nan
70758;BME280;59316;52.964;7.102;2023-05-10T04:14:56;100697.72;;;14.62;nan
70758;BME280;59316;52.964;7.102;2023-05-10T04:20:18;100695.16;;;14.72;nan
70758;BME280;59316;52.964;7.102;2023-05-10T04:25:40;100697.91;;;14.71;nan
70758;BME280;59316;52.964;7.102;2023-05-10T04:31:06;100704.75;;;14.73;nan
70758;BME280;59316;52.964;7.102;2023-05-10T04:36:28;100703.06;;;14.72;nan
70758;BME280;59316;52.964;7.102;2023-05-10T04:41:50;100704.75;;;14.73;nan
70758;BME280;59316;52.964;7.102;2023-05-10T04:47:11;100712.16;;;14.57;nan
70758;BME280;59316;52.964;7.102;2023-05-10T04:52:33;100710.03;;;14.51;nan
70758;BME280;59316;52.964;7.102;2023-05-10T04:57:55;100725.44;;;14.67;nan
70758;BME280;59316;52.964;7.102;2023-05-10T05:03:16;100722.94;;;14.65;nan
70758;BME280;59316;52.964;7.102;2023-05-10T05:08:38;100736.72;;;14.57;nan
70758;BME280;59316;52.964;7.102;2023-05-10T05:13:59;100733.81;;;14.72;nan
70758;BME280;59316;52.964;7.102;2023-05-10T05:19:21;100715.16;;;14.75;nan
70758;BME280;59316;52.964;7.102;2023-05-10T05:24:42;100727.72;;;14.71;nan
70758;BME280;59316;52.964;7.102;2023-05-10T05:30:04;100728.34;;;14.64;nan
70758;BME280;59316;52.964;7.102;2023-05-10T05:35:27;100725.69;;;14.75;nan
70758;BME280;59316;52.964;7.102;2023-05-10T05:40:48;100732.13;;;14.71;nan
70758;BME280;59316;52.964;7.102;2023-05-10T05:46:10;100738.47;;;14.79;nan
70758;BME280;59316;52.964;7.102;2023-05-10T05:51:31;100746.84;;;14.73;nan
70758;BME280;59316;52.964;7.102;2023-05-10T05:56:54;100744.00;;;14.76;nan
70758;BME280;59316;52.964;7.102;2023-05-10T06:02:18;100754.47;;;14.99;nan
70758;BME280;59316;52.964;7.102;2023-05-10T06:07:40;100758.19;;;14.97;nan
70758;BME280;59316;52.964;7.102;2023-05-10T06:13:02;100762.16;;;14.79;nan
70758;BME280;59316;52.964;7.102;2023-05-10T06:18:23;100768.16;;;14.82;nan
70758;BME280;59316;52.964;7.102;2023-05-10T06:23:45;100776.75;;;14.84;nan
70758;BME280;59316;52.964;7.102;2023-05-10T06:29:06;100777.50;;;14.74;nan
70758;BME280;59316;52.964;7.102;2023-05-10T06:34:28;100778.56;;;14.83;nan
70758;BME280;59316;52.964;7.102;2023-05-10T06:39:49;100785.25;;;14.76;nan
70758;BME280;59316;52.964;7.102;2023-05-10T06:45:11;100785.38;;;14.97;nan
70758;BME280;59316;52.964;7.102;2023-05-10T06:50:33;100781.81;;;14.75;nan
70758;BME280;59316;52.964;7.102;2023-05-10T06:55:54;100789.09;;;14.94;nan
70758;BME280;59316;52.964;7.102;2023-05-10T07:01:16;100795.53;;;15.02;nan
70758;BME280;59316;52.964;7.102;2023-05-10T07:06:37;100791.09;;;15.14;nan
70758;BME280;59316;52.964;7.102;2023-05-10T07:11:59;100804.00;;;15.28;nan
70758;BME280;59316;52.964;7.102;2023-05-10T07:17:20;100813.44;;;15.31;nan
70758;BME280;59316;52.964;7.102;2023-05-10T07:22:42;100811.09;;;15.39;nan
70758;BME280;59316;52.964;7.102;2023-05-10T07:28:03;100813.44;;;15.53;nan
70758;BME280;59316;52.964;7.102;2023-05-10T07:33:25;100821.09;;;15.34;nan
70758;BME280;59316;52.964;7.102;2023-05-10T07:38:46;100825.06;;;15.51;nan
70758;BME280;59316;52.964;7.102;2023-05-10T07:44:08;100833.59;;;15.43;nan
70758;BME280;59316;52.964;7.102;2023-05-10T07:49:30;100831.63;;;15.56;nan
70758;BME280;59316;52.964;7.102;2023-05-10T07:54:51;100842.44;;;15.31;nan
70758;BME280;59316;52.964;7.102;2023-05-10T08:00:17;100844.94;;;15.32;nan
70758;BME280;59316;52.964;7.102;2023-05-10T08:05:39;100849.25;;;15.56;nan
70758;BME280;59316;52.964;7.102;2023-05-10T08:11:00;100852.97;;;15.53;nan
70758;BME280;59316;52.964;7.102;2023-05-10T08:16:22;100867.72;;;15.22;nan
70758;BME280;59316;52.964;7.102;2023-05-10T08:21:44;100866.88;;;15.21;nan
70758;BME280;59316;52.964;7.102;2023-05-10T08:27:07;100875.59;;;15.22;nan
70758;BME280;59316;52.964;7.102;2023-05-10T08:32:28;100882.56;;;15.46;nan
70758;BME280;59316;52.964;7.102;2023-05-10T08:37:51;100893.09;;;15.68;nan
70758;BME280;59316;52.964;7.102;2023-05-10T08:43:13;100888.75;;;15.67;nan
70758;BME280;59316;52.964;7.102;2023-05-10T08:48:34;100890.94;;;15.95;nan
70758;BME280;59316;52.964;7.102;2023-05-10T08:53:56;100900.38;;;16.08;nan
70758;BME280;59316;52.964;7.102;2023-05-10T08:59:18;100908.06;;;16.33;nan
70758;BME280;59316;52.964;7.102;2023-05-10T09:04:39;100914.03;;;16.14;nan
70758;BME280;59316;52.964;7.102;2023-05-10T09:10:01;100918.50;;;16.55;nan
70758;BME280;59316;52.964;7.102;2023-05-10T09:15:23;100920.75;;;16.60;nan
70758;BME280;59316;52.964;7.102;2023-05-10T09:20:44;100935.69;;;16.92;nan
70758;BME280;59316;52.964;7.102;2023-05-10T09:26:07;100944.75;;;16.68;nan
70758;BME280;59316;52.964;7.102;2023-05-10T09:31:52;100960.75;;;16.55;nan
70758;BME280;59316;52.964;7.102;2023-05-10T09:37:14;100955.47;;;16.55;nan
70758;BME280;59316;52.964;7.102;2023-05-10T09:42:35;100972.28;;;16.54;nan
70758;BME280;59316;52.964;7.102;2023-05-10T09:47:58;100970.44;;;16.66;nan
70758;BME280;59316;52.964;7.102;2023-05-10T09:53:20;100967.41;;;17.13;nan
70758;BME280;59316;52.964;7.102;2023-05-10T09:58:41;100982.81;;;17.39;nan
70758;BME280;59316;52.964;7.102;2023-05-10T10:04:05;100978.72;;;17.66;nan
70758;BME280;59316;52.964;7.102;2023-05-10T10:09:27;100990.31;;;17.34;nan
70758;BME280;59316;52.964;7.102;2023-05-10T10:14:49;100990.09;;;17.87;nan
70758;BME280;59316;52.964;7.102;2023-05-10T10:20:11;100979.78;;;17.53;nan
70758;BME280;59316;52.964;7.102;2023-05-10T10:25:33;100991.00;;;18.37;nan
70758;BME280;59316;52.964;7.102;2023-05-10T10:30:56;100991.84;;;18.37;nan
70758;BME280;59316;52.964;7.102;2023-05-10T10:36:33;100998.22;;;18.25;nan
70758;BME280;59316;52.964;7.102;2023-05-10T10:42:45;100999.47;;;19.09;nan
70758;BME280;59316;52.964;7.102;2023-05-10T10:48:23;100995.38;;;19.25;nan
70758;BME280;59316;52.964;7.102;2023-05-10T10:53:47;101000.13;;;19.59;nan
70758;BME280;59316;52.964;7.102;2023-05-10T10:59:09;101005.59;;;18.90;nan
70758;BME280;59316;52.964;7.102;2023-05-10T11:04:41;101024.59;;;17.45;nan
70758;BME280;59316;52.964;7.102;2023-05-10T11:10:04;101024.59;;;17.45;nan
70758;BME280;59316;52.964;7.102;2023-05-10T11:21:01;101024.09;;;18.02;nan
70758;BME280;59316;52.964;7.102;2023-05-10T11:26:24;101035.59;;;18.32;nan
70758;BME280;59316;52.964;7.102;2023-05-10T11:31:51;101034.72;;;17.40;nan
70758;BME280;59316;52.964;7.102;2023-05-10T11:37:12;101058.25;;;17.01;nan
70758;BME280;59316;52.964;7.102;2023-05-10T11:42:34;101066.34;;;16.67;nan
70758;BME280;59316;52.964;7.102;2023-05-10T11:47:58;101069.28;;;16.85;nan
70758;BME280;59316;52.964;7.102;2023-05-10T11:53:20;101073.47;;;16.87;nan
70758;BME280;59316;52.964;7.102;2023-05-10T11:58:42;101081.91;;;17.23;nan
70758;BME280;59316;52.964;7.102;2023-05-10T12:04:04;101074.22;;;17.20;nan
70758;BME280;59316;52.964;7.102;2023-05-10T12:09:25;101083.16;;;17.19;nan
70758;BME280;59316;52.964;7.102;2023-05-10T12:15:03;101083.66;;;17.86;nan
70758;BME280;59316;52.964;7.102;2023-05-10T12:20:27;101078.50;;;18.26;nan
70758;BME280;59316;52.964;7.102;2023-05-10T12:25:49;101075.16;;;18.43;nan
70758;BME280;59316;52.964;7.102;2023-05-10T12:31:10;101089.00;;;18.86;nan
70758;BME280;59316;52.964;7.102;2023-05-10T12:36:32;101093.00;;;19.49;nan
70758;BME280;59316;52.964;7.102;2023-05-10T12:41:53;101101.84;;;19.00;nan
70758;BME280;59316;52.964;7.102;2023-05-10T12:47:15;101108.13;;;19.09;nan
70758;BME280;59316;52.964;7.102;2023-05-10T12:52:36;101111.06;;;19.16;nan
70758;BME280;59316;52.964;7.102;2023-05-10T12:57:58;101115.97;;;18.91;nan
70758;BME280;59316;52.964;7.102;2023-05-10T13:03:19;101111.88;;;18.87;nan
70758;BME280;59316;52.964;7.102;2023-05-10T13:08:41;101114.69;;;19.05;nan
70758;BME280;59316;52.964;7.102;2023-05-10T13:14:03;101117.63;;;18.92;nan
70758;BME280;59316;52.964;7.102;2023-05-10T13:19:25;101132.56;;;18.33;nan
70758;BME280;59316;52.964;7.102;2023-05-10T13:24:47;101127.34;;;18.12;nan
70758;BME280;59316;52.964;7.102;2023-05-10T13:30:08;101141.91;;;17.75;nan
70758;BME280;59316;52.964;7.102;2023-05-10T13:35:30;101151.91;;;17.93;nan
70758;BME280;59316;52.964;7.102;2023-05-10T13:40:52;101148.13;;;18.16;nan
70758;BME280;59316;52.964;7.102;2023-05-10T13:46:13;101140.13;;;18.47;nan
70758;BME280;59316;52.964;7.102;2023-05-10T13:51:35;101143.22;;;18.62;nan
70758;BME280;59316;52.964;7.102;2023-05-10T13:56:56;101143.38;;;19.59;nan
70758;BME280;59316;52.964;7.102;2023-05-10T14:02:18;101140.97;;;20.13;nan
70758;BME280;59316;52.964;7.102;2023-05-10T14:07:39;101131.09;;;20.33;nan
70758;BME280;59316;52.964;7.102;2023-05-10T14:13:01;101126.72;;;20.14;nan
70758;BME280;59316;52.964;7.102;2023-05-10T14:18:22;101136.78;;;19.63;nan
70758;BME280;59316;52.964;7.102;2023-05-10T14:23:44;101137.28;;;19.09;nan
70758;BME280;59316;52.964;7.102;2023-05-10T14:29:06;101137.75;;;18.44;nan
70758;BME280;59316;52.964;7.102;2023-05-10T14:34:29;101140.63;;;17.91;nan
70758;BME280;59316;52.964;7.102;2023-05-10T14:39:50;101146.56;;;17.83;nan
70758;BME280;59316;52.964;7.102;2023-05-10T14:45:12;101157.53;;;17.57;nan
70758;BME280;59316;52.964;7.102;2023-05-10T14:50:34;101158.19;;;17.49;nan
70758;BME280;59316;52.964;7.102;2023-05-10T14:55:57;101166.13;;;17.49;nan
70758;BME280;59316;52.964;7.102;2023-05-10T15:01:18;101169.41;;;17.42;nan
70758;BME280;59316;52.964;7.102;2023-05-10T15:06:40;101161.09;;;17.46;nan
70758;BME280;59316;52.964;7.102;2023-05-10T15:12:01;101159.28;;;17.68;nan
70758;BME280;59316;52.964;7.102;2023-05-10T15:17:23;101158.25;;;18.11;nan
70758;BME280;59316;52.964;7.102;2023-05-10T15:22:44;101163.19;;;18.66;nan
70758;BME280;59316;52.964;7.102;2023-05-10T15:28:06;101169.09;;;19.29;nan
70758;BME280;59316;52.964;7.102;2023-05-10T15:33:28;101164.56;;;19.68;nan
70758;BME280;59316;52.964;7.102;2023-05-10T15:38:49;101158.84;;;19.73;nan
70758;BME280;59316;52.964;7.102;2023-05-10T15:44:11;101172.41;;;19.50;nan
70758;BME280;59316;52.964;7.102;2023-05-10T15:49:33;101170.16;;;19.65;nan
70758;BME280;59316;52.964;7.102;2023-05-10T15:54:54;101188.63;;;19.47;nan
70758;BME280;59316;52.964;7.102;2023-05-10T16:00:16;101183.88;;;19.41;nan
70758;BME280;59316;52.964;7.102;2023-05-10T16:05:37;101196.94;;;18.84;nan
70758;BME280;59316;52.964;7.102;2023-05-10T16:10:59;101190.03;;;18.52;nan
70758;BME280;59316;52.964;7.102;2023-05-10T16:16:21;101194.22;;;18.54;nan
70758;BME280;59316;52.964;7.102;2023-05-10T16:21:42;101200.53;;;18.63;nan
70758;BME280;59316;52.964;7.102;2023-05-10T16:27:04;101207.63;;;18.73;nan
70758;BME280;59316;52.964;7.102;2023-05-10T16:32:26;101214.09;;;18.80;nan
70758;BME280;59316;52.964;7.102;2023-05-10T16:37:47;101209.28;;;19.14;nan
70758;BME280;59316;52.964;7.102;2023-05-10T16:43:12;101214.19;;;19.19;nan
70758;BME280;59316;52.964;7.102;2023-05-10T16:48:33;101220.03;;;19.23;nan
70758;BME280;59316;52.964;7.102;2023-05-10T16:53:55;101216.09;;;18.97;nan
70758;BME280;59316;52.964;7.102;2023-05-10T16:59:16;101224.72;;;18.90;nan
70758;BME280;59316;52.964;7.102;2023-05-10T17:04:38;101231.13;;;18.87;nan
70758;BME280;59316;52.964;7.102;2023-05-10T17:09:59;101239.81;;;18.48;nan
70758;BME280;59316;52.964;7.102;2023-05-10T17:15:21;101240.47;;;18.50;nan
70758;BME280;59316;52.964;7.102;2023-05-10T17:20:43;101242.53;;;18.37;nan
70758;BME280;59316;52.964;7.102;2023-05-10T17:26:05;101241.44;;;18.40;nan
70758;BME280;59316;52.964;7.102;2023-05-10T17:31:27;101243.38;;;18.37;nan
70758;BME280;59316;52.964;7.102;2023-05-10T17:36:49;101242.47;;;18.27;nan
70758;BME280;59316;52.964;7.102;2023-05-10T17:42:11;101246.69;;;18.30;nan
70758;BME280;59316;52.964;7.102;2023-05-10T17:47:32;101249.53;;;18.17;nan
70758;BME280;59316;52.964;7.102;2023-05-10T17:52:54;101247.84;;;18.37;nan
70758;BME280;59316;52.964;7.102;2023-05-10T17:58:16;101268.06;;;17.96;nan
70758;BME280;59316;52.964;7.102;2023-05-10T18:03:37;101269.72;;;17.76;nan
70758;BME280;59316;52.964;7.102;2023-05-10T18:08:59;101272.75;;;17.71;nan
70758;BME280;59316;52.964;7.102;2023-05-10T18:14:20;101268.88;;;17.54;nan
70758;BME280;59316;52.964;7.102;2023-05-10T18:19:55;101285.34;;;17.46;nan
70758;BME280;59316;52.964;7.102;2023-05-10T18:25:17;101293.78;;;17.40;nan
70758;BME280;59316;52.964;7.102;2023-05-10T18:30:40;101297.69;;;17.24;nan
70758;BME280;59316;52.964;7.102;2023-05-10T18:36:01;101302.41;;;16.98;nan
70758;BME280;59316;52.964;7.102;2023-05-10T18:41:23;101305.03;;;16.87;nan
70758;BME280;59316;52.964;7.102;2023-05-10T18:46:44;101312.34;;;16.61;nan
70758;BME280;59316;52.964;7.102;2023-05-10T18:52:06;101309.69;;;16.38;nan
70758;BME280;59316;52.964;7.102;2023-05-10T18:57:28;101319.88;;;16.20;nan
70758;BME280;59316;52.964;7.102;2023-05-10T19:02:49;101326.47;;;16.25;nan
70758;BME280;59316;52.964;7.102;2023-05-10T19:08:11;101330.16;;;16.23;nan
70758;BME280;59316;52.964;7.102;2023-05-10T19:13:33;101333.84;;;16.09;nan
70758;BME280;59316;52.964;7.102;2023-05-10T19:18:54;101350.41;;;16.11;nan
70758;BME280;59316;52.964;7.102;2023-05-10T19:24:16;101348.19;;;15.93;nan
70758;BME280;59316;52.964;7.102;2023-05-10T19:29:38;101346.25;;;15.84;nan
70758;BME280;59316;52.964;7.102;2023-05-10T19:34:59;101351.06;;;15.66;nan
70758;BME280;59316;52.964;7.102;2023-05-10T19:40:21;101350.56;;;15.61;nan
70758;BME280;59316;52.964;7.102;2023-05-10T19:45:42;101359.03;;;15.53;nan
70758;BME280;59316;52.964;7.102;2023-05-10T19:51:04;101364.63;;;15.49;nan
70758;BME280;59316;52.964;7.102;2023-05-10T19:56:29;101364.38;;;15.27;nan
70758;BME280;59316;52.964;7.102;2023-05-10T20:01:50;101370.38;;;15.17;nan
70758;BME280;59316;52.964;7.102;2023-05-10T20:07:12;101369.47;;;15.05;nan
70758;BME280;59316;52.964;7.102;2023-05-10T20:12:33;101380.31;;;15.00;nan
70758;BME280;59316;52.964;7.102;2023-05-10T20:17:55;101374.34;;;14.85;nan
70758;BME280;59316;52.964;7.102;2023-05-10T20:23:17;101369.16;;;14.84;nan
70758;BME280;59316;52.964;7.102;2023-05-10T20:28:38;101372.66;;;14.71;nan
70758;BME280;59316;52.964;7.102;2023-05-10T20:34:00;101379.38;;;14.50;nan
70758;BME280;59316;52.964;7.102;2023-05-10T20:39:21;101380.41;;;14.34;nan
70758;BME280;59316;52.964;7.102;2023-05-10T20:44:43;101391.34;;;14.28;nan
70758;BME280;59316;52.964;7.102;2023-05-10T20:50:05;101392.28;;;14.27;nan
70758;BME280;59316;52.964;7.102;2023-05-10T20:55:27;101393.63;;;14.20;nan
70758;BME280;59316;52.964;7.102;2023-05-10T21:00:48;101409.25;;;14.36;nan
70758;BME280;59316;52.964;7.102;2023-05-10T21:06:10;101407.78;;;14.44;nan
70758;BME280;59316;52.964;7.102;2023-05-10T21:11:35;101417.16;;;14.49;nan
70758;BME280;59316;52.964;7.102;2023-05-10T21:16:56;101411.78;;;14.50;nan
70758;BME280;59316;52.964;7.102;2023-05-10T21:22:17;101411.78;;;14.37;nan
70758;BME280;59316;52.964;7.102;2023-05-10T21:27:38;101414.69;;;14.33;nan
70758;BME280;59316;52.964;7.102;2023-05-10T21:33:00;101395.75;;;14.27;nan
70758;BME280;59316;52.964;7.102;2023-05-10T21:38:21;101403.72;;;14.13;nan
70758;BME280;59316;52.964;7.102;2023-05-10T21:43:43;101401.06;;;14.00;nan
70758;BME280;59316;52.964;7.102;2023-05-10T21:49:05;101394.34;;;14.09;nan
70758;BME280;59316;52.964;7.102;2023-05-10T21:54:27;101406.41;;;13.99;nan
70758;BME280;59316;52.964;7.102;2023-05-10T21:59:48;101410.09;;;13.96;nan
70758;BME280;59316;52.964;7.102;2023-05-10T22:05:10;101409.97;;;13.98;nan
70758;BME280;59316;52.964;7.102;2023-05-10T22:10:32;101413.91;;;13.90;nan
70758;BME280;59316;52.964;7.102;2023-05-10T22:15:53;101404.66;;;13.85;nan
70758;BME280;59316;52.964;7.102;2023-05-10T22:21:15;101407.16;;;13.86;nan
70758;BME280;59316;52.964;7.102;2023-05-10T22:26:36;101417.75;;;13.72;nan
70758;BME280;59316;52.964;7.102;2023-05-10T22:31:58;101427.66;;;13.81;nan
70758;BME280;59316;52.964;7.102;2023-05-10T22:37:19;101411.69;;;13.84;nan
70758;BME280;59316;52.964;7.102;2023-05-10T22:42:41;101423.69;;;13.88;nan
70758;BME280;59316;52.964;7.102;2023-05-10T22:48:03;101421.34;;;13.84;nan
70758;BME280;59316;52.964;7.102;2023-05-10T22:53:25;101427.47;;;13.99;nan
70758;BME280;59316;52.964;7.102;2023-05-10T22:58:47;101417.41;;;13.91;nan
70758;BME280;59316;52.964;7.102;2023-05-10T23:04:08;101426.88;;;13.93;nan
70758;BME280;59316;52.964;7.102;2023-05-10T23:09:30;101429.41;;;13.95;nan
70758;BME280;59316;52.964;7.102;2023-05-10T23:14:52;101431.66;;;14.01;nan
70758;BME280;59316;52.964;7.102;2023-05-10T23:20:13;101432.94;;;14.08;nan
70758;BME280;59316;52.964;7.102;2023-05-10T23:25:36;101438.03;;;14.11;nan
70758;BME280;59316;52.964;7.102;2023-05-10T23:30:57;101436.31;;;14.10;nan
70758;BME280;59316;52.964;7.102;2023-05-10T23:36:19;101435.69;;;13.92;nan
70758;BME280;59316;52.964;7.102;2023-05-10T23:41:40;101430.28;;;13.81;nan
70758;BME280;59316;52.964;7.102;2023-05-10T23:47:02;101431.44;;;13.77;nan
70758;BME280;59316;52.964;7.102;2023-05-10T23:52:24;101431.72;;;13.72;nan
70758;BME280;59316;52.964;7.102;2023-05-10T23:57:46;101437.34;;;13.66;nan
